sensor_id;sensor_type;location;lat;lon;timestamp;temperature;humidity
23089;DHT22;11713;48.506;8.966;2023-05-07T00:00:12;13.80;99.90
23089;DHT22;11713;48.506;8.966;2023-05-07T00:02:41;13.80;99.90
23089;DHT22;11713;48.506;8.966;2023-05-07T00:05:07;13.80;99.90
23089;DHT22;11713;48.506;8.966;2023-05-07T00:07:33;13.80;99.90
23089;DHT22;11713;48.506;8.966;2023-05-07T00:09:59;13.80;99.90
23089;DHT22;11713;48.506;8.966;2023-05-07T00:12:25;13.70;99.90
23089;DHT22;11713;48.506;8.966;2023-05-07T00:14:51;13.70;99.90
23089;DHT22;11713;48.506;8.966;2023-05-07T00:17:16;13.70;99.90
23089;DHT22;11713;48.506;8.966;2023-05-07T00:19:42;13.70;99.90
23089;DHT22;11713;48.506;8.966;2023-05-07T00:22:10;13.60;99.90
23089;DHT22;11713;48.506;8.966;2023-05-07T00:24:35;13.50;99.90
23089;DHT22;11713;48.506;8.966;2023-05-07T00:27:01;13.50;99.90
23089;DHT22;11713;48.506;8.966;2023-05-07T00:29:27;13.40;99.90
23089;DHT22;11713;48.506;8.966;2023-05-07T00:31:53;13.40;99.90
23089;DHT22;11713;48.506;8.966;2023-05-07T00:34:20;13.50;99.90
23089;DHT22;11713;48.506;8.966;2023-05-07T00:36:46;13.50;99.90
23089;DHT22;11713;48.506;8.966;2023-05-07T00:39:12;13.50;99.90
23089;DHT22;11713;48.506;8.966;2023-05-07T00:41:37;13.50;99.90
23089;DHT22;11713;48.506;8.966;2023-05-07T00:44:04;13.50;99.90
23089;DHT22;11713;48.506;8.966;2023-05-07T00:46:30;13.40;99.90
23089;DHT22;11713;48.506;8.966;2023-05-07T00:48:57;13.40;99.90
23089;DHT22;11713;48.506;8.966;2023-05-07T00:51:24;13.40;99.90
23089;DHT22;11713;48.506;8.966;2023-05-07T00:53:50;13.40;99.90
23089;DHT22;11713;48.506;8.966;2023-05-07T00:56:17;13.40;99.90
23089;DHT22;11713;48.506;8.966;2023-05-07T00:58:42;13.40;99.90
23089;DHT22;11713;48.506;8.966;2023-05-07T01:01:08;13.30;99.90
23089;DHT22;11713;48.506;8.966;2023-05-07T01:03:34;13.30;99.90
23089;DHT22;11713;48.506;8.966;2023-05-07T01:06:01;13.20;99.90
23089;DHT22;11713;48.506;8.966;2023-05-07T01:08:28;13.20;99.90
23089;DHT22;11713;48.506;8.966;2023-05-07T01:10:56;13.20;99.90
23089;DHT22;11713;48.506;8.966;2023-05-07T01:13:23;13.10;99.90
23089;DHT22;11713;48.506;8.966;2023-05-07T01:15:50;13.20;99.90
23089;DHT22;11713;48.506;8.966;2023-05-07T01:18:16;13.20;99.90
23089;DHT22;11713;48.506;8.966;2023-05-07T01:20:43;13.20;99.90
23089;DHT22;11713;48.506;8.966;2023-05-07T01:23:11;13.20;99.90
23089;DHT22;11713;48.506;8.966;2023-05-07T01:25:37;13.30;99.90
23089;DHT22;11713;48.506;8.966;2023-05-07T01:28:04;13.20;99.90
23089;DHT22;11713;48.506;8.966;2023-05-07T01:30:34;13.20;99.90
23089;DHT22;11713;48.506;8.966;2023-05-07T01:33:08;13.30;99.90
23089;DHT22;11713;48.506;8.966;2023-05-07T01:35:38;13.30;99.90
23089;DHT22;11713;48.506;8.966;2023-05-07T01:38:05;13.30;99.90
23089;DHT22;11713;48.506;8.966;2023-05-07T01:40:33;13.30;99.90
23089;DHT22;11713;48.506;8.966;2023-05-07T01:43:01;13.30;99.90
23089;DHT22;11713;48.506;8.966;2023-05-07T01:45:27;13.30;99.90
23089;DHT22;11713;48.506;8.966;2023-05-07T01:47:54;13.20;99.90
23089;DHT22;11713;48.506;8.966;2023-05-07T01:50:22;13.20;99.90
23089;DHT22;11713;48.506;8.966;2023-05-07T01:52:50;13.20;99.90
23089;DHT22;11713;48.506;8.966;2023-05-07T01:55:16;13.10;99.90
23089;DHT22;11713;48.506;8.966;2023-05-07T01:57:42;13.10;99.90
23089;DHT22;11713;48.506;8.966;2023-05-07T02:00:08;13.00;99.90
23089;DHT22;11713;48.506;8.966;2023-05-07T02:02:41;13.00;99.90
23089;DHT22;11713;48.506;8.966;2023-05-07T02:05:11;12.80;99.90
23089;DHT22;11713;48.506;8.966;2023-05-07T02:07:38;12.70;99.90
23089;DHT22;11713;48.506;8.966;2023-05-07T02:10:05;12.60;99.90
23089;DHT22;11713;48.506;8.966;2023-05-07T02:12:32;12.60;99.90
23089;DHT22;11713;48.506;8.966;2023-05-07T02:14:58;12.50;99.90
23089;DHT22;11713;48.506;8.966;2023-05-07T02:17:24;12.50;99.90
23089;DHT22;11713;48.506;8.966;2023-05-07T02:19:50;12.50;99.90
23089;DHT22;11713;48.506;8.966;2023-05-07T02:22:15;12.50;99.90
23089;DHT22;11713;48.506;8.966;2023-05-07T02:24:41;12.60;99.90
23089;DHT22;11713;48.506;8.966;2023-05-07T02:27:07;12.60;99.90
23089;DHT22;11713;48.506;8.966;2023-05-07T02:29:33;12.50;99.90
23089;DHT22;11713;48.506;8.966;2023-05-07T02:31:59;12.50;99.90
23089;DHT22;11713;48.506;8.966;2023-05-07T02:34:24;12.50;99.90
23089;DHT22;11713;48.506;8.966;2023-05-07T02:36:51;12.50;99.90
23089;DHT22;11713;48.506;8.966;2023-05-07T02:39:21;12.40;99.90
23089;DHT22;11713;48.506;8.966;2023-05-07T02:41:47;12.40;99.90
23089;DHT22;11713;48.506;8.966;2023-05-07T02:44:13;12.30;99.90
23089;DHT22;11713;48.506;8.966;2023-05-07T02:46:39;12.20;99.90
23089;DHT22;11713;48.506;8.966;2023-05-07T02:49:08;12.20;99.90
23089;DHT22;11713;48.506;8.966;2023-05-07T02:51:34;12.30;99.90
23089;DHT22;11713;48.506;8.966;2023-05-07T02:54:02;12.30;99.90
23089;DHT22;11713;48.506;8.966;2023-05-07T02:56:29;12.30;99.90
23089;DHT22;11713;48.506;8.966;2023-05-07T02:58:56;12.30;99.90
23089;DHT22;11713;48.506;8.966;2023-05-07T03:01:25;12.30;99.90
23089;DHT22;11713;48.506;8.966;2023-05-07T03:03:58;12.30;99.90
23089;DHT22;11713;48.506;8.966;2023-05-07T03:06:24;12.20;99.90
23089;DHT22;11713;48.506;8.966;2023-05-07T03:08:50;12.20;99.90
23089;DHT22;11713;48.506;8.966;2023-05-07T03:11:17;12.20;99.90
23089;DHT22;11713;48.506;8.966;2023-05-07T03:13:42;12.30;99.90
23089;DHT22;11713;48.506;8.966;2023-05-07T03:16:08;12.30;99.90
23089;DHT22;11713;48.506;8.966;2023-05-07T03:18:34;12.30;99.90
23089;DHT22;11713;48.506;8.966;2023-05-07T03:21:00;12.30;99.90
23089;DHT22;11713;48.506;8.966;2023-05-07T03:23:26;12.30;99.90
23089;DHT22;11713;48.506;8.966;2023-05-07T03:25:52;12.20;99.90
23089;DHT22;11713;48.506;8.966;2023-05-07T03:28:18;12.10;99.90
23089;DHT22;11713;48.506;8.966;2023-05-07T03:30:50;12.00;99.90
23089;DHT22;11713;48.506;8.966;2023-05-07T03:33:16;11.90;99.90
23089;DHT22;11713;48.506;8.966;2023-05-07T03:35:42;11.80;99.90
23089;DHT22;11713;48.506;8.966;2023-05-07T03:38:09;11.80;99.90
23089;DHT22;11713;48.506;8.966;2023-05-07T03:40:37;11.80;99.90
23089;DHT22;11713;48.506;8.966;2023-05-07T03:43:03;11.80;99.90
23089;DHT22;11713;48.506;8.966;2023-05-07T03:45:31;11.80;99.90
23089;DHT22;11713;48.506;8.966;2023-05-07T03:48:07;11.70;99.90
23089;DHT22;11713;48.506;8.966;2023-05-07T03:50:34;11.80;99.90
23089;DHT22;11713;48.506;8.966;2023-05-07T03:52:59;11.80;99.90
23089;DHT22;11713;48.506;8.966;2023-05-07T03:55:26;11.90;99.90
23089;DHT22;11713;48.506;8.966;2023-05-07T03:57:57;11.90;99.90
23089;DHT22;11713;48.506;8.966;2023-05-07T04:00:25;11.90;99.90
23089;DHT22;11713;48.506;8.966;2023-05-07T04:02:50;11.90;99.90
23089;DHT22;11713;48.506;8.966;2023-05-07T04:05:23;11.80;99.90
23089;DHT22;11713;48.506;8.966;2023-05-07T04:07:52;11.80;99.90
23089;DHT22;11713;48.506;8.966;2023-05-07T04:10:24;11.80;99.90
23089;DHT22;11713;48.506;8.966;2023-05-07T04:12:53;11.80;99.90
23089;DHT22;11713;48.506;8.966;2023-05-07T04:15:21;11.90;99.90
23089;DHT22;11713;48.506;8.966;2023-05-07T04:17:47;11.90;99.90
23089;DHT22;11713;48.506;8.966;2023-05-07T04:20:16;12.00;99.90
23089;DHT22;11713;48.506;8.966;2023-05-07T04:22:47;12.00;99.90
23089;DHT22;11713;48.506;8.966;2023-05-07T04:25:14;11.90;99.90
23089;DHT22;11713;48.506;8.966;2023-05-07T04:27:41;12.00;99.90
23089;DHT22;11713;48.506;8.966;2023-05-07T04:30:07;11.90;99.90
23089;DHT22;11713;48.506;8.966;2023-05-07T04:32:38;11.90;99.90
23089;DHT22;11713;48.506;8.966;2023-05-07T04:35:05;11.90;99.90
23089;DHT22;11713;48.506;8.966;2023-05-07T04:37:34;11.90;99.90
23089;DHT22;11713;48.506;8.966;2023-05-07T04:40:01;11.90;99.90
23089;DHT22;11713;48.506;8.966;2023-05-07T04:42:28;11.90;99.90
23089;DHT22;11713;48.506;8.966;2023-05-07T04:44:55;12.00;99.90
23089;DHT22;11713;48.506;8.966;2023-05-07T04:47:22;12.00;99.90
23089;DHT22;11713;48.506;8.966;2023-05-07T04:49:48;12.10;99.90
23089;DHT22;11713;48.506;8.966;2023-05-07T04:52:14;12.10;99.90
23089;DHT22;11713;48.506;8.966;2023-05-07T04:54:41;12.10;99.90
23089;DHT22;11713;48.506;8.966;2023-05-07T04:57:07;12.10;99.90
23089;DHT22;11713;48.506;8.966;2023-05-07T04:59:34;12.20;99.90
23089;DHT22;11713;48.506;8.966;2023-05-07T05:02:00;12.20;99.90
23089;DHT22;11713;48.506;8.966;2023-05-07T05:04:27;12.30;99.90
23089;DHT22;11713;48.506;8.966;2023-05-07T05:06:53;12.30;99.90
23089;DHT22;11713;48.506;8.966;2023-05-07T05:09:19;12.40;99.90
23089;DHT22;11713;48.506;8.966;2023-05-07T05:11:47;12.40;99.90
23089;DHT22;11713;48.506;8.966;2023-05-07T05:14:14;12.50;99.90
23089;DHT22;11713;48.506;8.966;2023-05-07T05:16:40;12.60;99.90
23089;DHT22;11713;48.506;8.966;2023-05-07T05:19:06;12.70;99.90
23089;DHT22;11713;48.506;8.966;2023-05-07T05:21:35;12.70;99.90
23089;DHT22;11713;48.506;8.966;2023-05-07T05:24:06;12.80;99.90
23089;DHT22;11713;48.506;8.966;2023-05-07T05:26:32;12.90;99.90
23089;DHT22;11713;48.506;8.966;2023-05-07T05:28:58;13.00;99.90
23089;DHT22;11713;48.506;8.966;2023-05-07T05:31:26;13.10;99.90
23089;DHT22;11713;48.506;8.966;2023-05-07T05:33:52;13.20;99.90
23089;DHT22;11713;48.506;8.966;2023-05-07T05:36:18;13.30;99.90
23089;DHT22;11713;48.506;8.966;2023-05-07T05:38:46;13.40;99.90
23089;DHT22;11713;48.506;8.966;2023-05-07T05:41:13;13.50;99.90
23089;DHT22;11713;48.506;8.966;2023-05-07T05:43:39;13.60;99.90
23089;DHT22;11713;48.506;8.966;2023-05-07T05:46:06;13.60;99.90
23089;DHT22;11713;48.506;8.966;2023-05-07T05:48:32;13.70;99.90
23089;DHT22;11713;48.506;8.966;2023-05-07T05:51:00;13.70;99.90
23089;DHT22;11713;48.506;8.966;2023-05-07T05:53:27;13.70;99.90
23089;DHT22;11713;48.506;8.966;2023-05-07T05:55:53;13.70;99.90
23089;DHT22;11713;48.506;8.966;2023-05-07T05:58:19;13.80;99.90
23089;DHT22;11713;48.506;8.966;2023-05-07T06:00:52;13.90;99.90
23089;DHT22;11713;48.506;8.966;2023-05-07T06:03:20;14.10;99.90
23089;DHT22;11713;48.506;8.966;2023-05-07T06:05:47;14.20;99.90
23089;DHT22;11713;48.506;8.966;2023-05-07T06:08:14;14.20;99.90
23089;DHT22;11713;48.506;8.966;2023-05-07T06:10:39;14.30;99.90
23089;DHT22;11713;48.506;8.966;2023-05-07T06:13:07;14.30;99.90
23089;DHT22;11713;48.506;8.966;2023-05-07T06:15:35;14.40;99.90
23089;DHT22;11713;48.506;8.966;2023-05-07T06:18:07;14.50;99.90
23089;DHT22;11713;48.506;8.966;2023-05-07T06:20:32;14.70;99.90
23089;DHT22;11713;48.506;8.966;2023-05-07T06:23:01;14.70;99.90
23089;DHT22;11713;48.506;8.966;2023-05-07T06:25:27;14.80;99.90
23089;DHT22;11713;48.506;8.966;2023-05-07T06:27:53;14.80;99.90
23089;DHT22;11713;48.506;8.966;2023-05-07T06:30:19;14.90;99.90
23089;DHT22;11713;48.506;8.966;2023-05-07T06:32:45;15.00;99.90
23089;DHT22;11713;48.506;8.966;2023-05-07T06:35:12;15.00;99.90
23089;DHT22;11713;48.506;8.966;2023-05-07T06:37:41;15.10;99.90
23089;DHT22;11713;48.506;8.966;2023-05-07T06:40:13;15.20;99.90
23089;DHT22;11713;48.506;8.966;2023-05-07T06:42:39;15.20;99.90
23089;DHT22;11713;48.506;8.966;2023-05-07T06:45:38;15.30;99.90
23089;DHT22;11713;48.506;8.966;2023-05-07T06:48:05;15.30;99.90
23089;DHT22;11713;48.506;8.966;2023-05-07T06:50:38;15.30;99.90
23089;DHT22;11713;48.506;8.966;2023-05-07T06:53:04;15.30;99.90
23089;DHT22;11713;48.506;8.966;2023-05-07T06:55:30;15.30;99.90
23089;DHT22;11713;48.506;8.966;2023-05-07T06:57:56;15.30;99.90
23089;DHT22;11713;48.506;8.966;2023-05-07T07:00:27;15.40;99.90
23089;DHT22;11713;48.506;8.966;2023-05-07T07:02:55;15.50;99.90
23089;DHT22;11713;48.506;8.966;2023-05-07T07:05:24;15.70;99.90
23089;DHT22;11713;48.506;8.966;2023-05-07T07:07:50;15.80;99.90
23089;DHT22;11713;48.506;8.966;2023-05-07T07:10:22;15.90;99.90
23089;DHT22;11713;48.506;8.966;2023-05-07T07:12:50;16.00;99.90
23089;DHT22;11713;48.506;8.966;2023-05-07T07:15:16;16.10;99.90
23089;DHT22;11713;48.506;8.966;2023-05-07T07:17:43;16.40;99.90
23089;DHT22;11713;48.506;8.966;2023-05-07T07:20:09;16.50;99.90
23089;DHT22;11713;48.506;8.966;2023-05-07T07:22:35;16.70;99.90
23089;DHT22;11713;48.506;8.966;2023-05-07T07:25:02;16.90;99.90
23089;DHT22;11713;48.506;8.966;2023-05-07T07:27:28;17.10;99.90
23089;DHT22;11713;48.506;8.966;2023-05-07T07:29:54;17.30;99.90
23089;DHT22;11713;48.506;8.966;2023-05-07T07:32:20;17.40;99.90
23089;DHT22;11713;48.506;8.966;2023-05-07T07:34:46;17.40;99.90
23089;DHT22;11713;48.506;8.966;2023-05-07T07:37:16;17.40;99.90
23089;DHT22;11713;48.506;8.966;2023-05-07T07:39:45;17.40;99.90
23089;DHT22;11713;48.506;8.966;2023-05-07T07:42:12;17.30;99.90
23089;DHT22;11713;48.506;8.966;2023-05-07T07:44:38;17.30;99.90
23089;DHT22;11713;48.506;8.966;2023-05-07T07:47:07;17.30;99.90
23089;DHT22;11713;48.506;8.966;2023-05-07T07:49:34;17.30;99.90
23089;DHT22;11713;48.506;8.966;2023-05-07T07:52:03;17.30;99.90
23089;DHT22;11713;48.506;8.966;2023-05-07T07:54:33;17.40;99.90
23089;DHT22;11713;48.506;8.966;2023-05-07T07:56:59;17.40;99.90
23089;DHT22;11713;48.506;8.966;2023-05-07T07:59:26;17.40;99.90
23089;DHT22;11713;48.506;8.966;2023-05-07T08:01:52;17.40;99.90
23089;DHT22;11713;48.506;8.966;2023-05-07T08:04:22;17.40;99.90
23089;DHT22;11713;48.506;8.966;2023-05-07T08:06:48;17.40;99.90
23089;DHT22;11713;48.506;8.966;2023-05-07T08:09:15;17.20;99.90
23089;DHT22;11713;48.506;8.966;2023-05-07T08:11:41;17.20;99.90
23089;DHT22;11713;48.506;8.966;2023-05-07T08:14:08;17.30;99.90
23089;DHT22;11713;48.506;8.966;2023-05-07T08:16:34;17.30;99.90
23089;DHT22;11713;48.506;8.966;2023-05-07T08:19:01;17.50;99.90
23089;DHT22;11713;48.506;8.966;2023-05-07T08:21:27;17.60;99.90
23089;DHT22;11713;48.506;8.966;2023-05-07T08:23:53;17.60;99.90
23089;DHT22;11713;48.506;8.966;2023-05-07T08:26:20;17.80;99.90
23089;DHT22;11713;48.506;8.966;2023-05-07T08:28:46;18.00;99.90
23089;DHT22;11713;48.506;8.966;2023-05-07T08:31:12;18.20;99.90
23089;DHT22;11713;48.506;8.966;2023-05-07T08:33:40;18.50;99.90
23089;DHT22;11713;48.506;8.966;2023-05-07T08:36:06;18.80;99.90
23089;DHT22;11713;48.506;8.966;2023-05-07T08:38:32;19.00;99.90
23089;DHT22;11713;48.506;8.966;2023-05-07T08:40:58;19.20;99.90
23089;DHT22;11713;48.506;8.966;2023-05-07T08:43:27;19.30;99.90
23089;DHT22;11713;48.506;8.966;2023-05-07T08:45:55;19.40;99.90
23089;DHT22;11713;48.506;8.966;2023-05-07T08:48:27;19.50;99.90
23089;DHT22;11713;48.506;8.966;2023-05-07T08:51:05;19.70;99.90
23089;DHT22;11713;48.506;8.966;2023-05-07T08:53:31;19.80;99.90
23089;DHT22;11713;48.506;8.966;2023-05-07T08:56:00;20.00;99.90
23089;DHT22;11713;48.506;8.966;2023-05-07T08:58:28;20.30;99.90
23089;DHT22;11713;48.506;8.966;2023-05-07T09:00:56;20.60;99.90
23089;DHT22;11713;48.506;8.966;2023-05-07T09:03:23;20.80;99.90
23089;DHT22;11713;48.506;8.966;2023-05-07T09:05:51;20.90;99.90
23089;DHT22;11713;48.506;8.966;2023-05-07T09:08:27;21.00;99.90
23089;DHT22;11713;48.506;8.966;2023-05-07T09:10:55;21.10;99.90
23089;DHT22;11713;48.506;8.966;2023-05-07T09:13:22;21.40;99.90
23089;DHT22;11713;48.506;8.966;2023-05-07T09:15:49;21.60;99.90
23089;DHT22;11713;48.506;8.966;2023-05-07T09:18:16;21.70;99.90
23089;DHT22;11713;48.506;8.966;2023-05-07T09:20:42;22.00;99.90
23089;DHT22;11713;48.506;8.966;2023-05-07T09:23:09;22.20;99.90
23089;DHT22;11713;48.506;8.966;2023-05-07T09:25:36;22.30;99.90
23089;DHT22;11713;48.506;8.966;2023-05-07T09:28:09;22.40;99.90
23089;DHT22;11713;48.506;8.966;2023-05-07T09:30:36;22.50;99.90
23089;DHT22;11713;48.506;8.966;2023-05-07T09:33:05;22.70;99.90
23089;DHT22;11713;48.506;8.966;2023-05-07T09:35:34;22.90;99.90
23089;DHT22;11713;48.506;8.966;2023-05-07T09:38:06;22.90;99.90
23089;DHT22;11713;48.506;8.966;2023-05-07T09:40:35;22.90;99.90
23089;DHT22;11713;48.506;8.966;2023-05-07T09:43:10;23.00;99.90
23089;DHT22;11713;48.506;8.966;2023-05-07T09:45:53;23.20;99.90
23089;DHT22;11713;48.506;8.966;2023-05-07T09:52:14;23.40;99.90
23089;DHT22;11713;48.506;8.966;2023-05-07T09:54:50;23.40;99.90
23089;DHT22;11713;48.506;8.966;2023-05-07T09:57:25;23.60;99.90
23089;DHT22;11713;48.506;8.966;2023-05-07T10:00:01;23.70;99.90
23089;DHT22;11713;48.506;8.966;2023-05-07T10:03:06;23.90;99.90
23089;DHT22;11713;48.506;8.966;2023-05-07T10:05:59;24.10;99.90
23089;DHT22;11713;48.506;8.966;2023-05-07T10:08:28;24.10;99.90
23089;DHT22;11713;48.506;8.966;2023-05-07T10:10:59;24.10;99.90
23089;DHT22;11713;48.506;8.966;2023-05-07T10:13:27;24.10;99.90
23089;DHT22;11713;48.506;8.966;2023-05-07T10:15:56;24.30;99.90
23089;DHT22;11713;48.506;8.966;2023-05-07T10:18:25;24.30;99.90
23089;DHT22;11713;48.506;8.966;2023-05-07T10:21:07;24.50;99.90
23089;DHT22;11713;48.506;8.966;2023-05-07T10:23:35;24.50;99.90
23089;DHT22;11713;48.506;8.966;2023-05-07T10:26:05;24.30;99.90
23089;DHT22;11713;48.506;8.966;2023-05-07T10:28:37;24.50;99.90
23089;DHT22;11713;48.506;8.966;2023-05-07T10:34:12;24.80;99.90
23089;DHT22;11713;48.506;8.966;2023-05-07T10:36:39;24.40;99.90
23089;DHT22;11713;48.506;8.966;2023-05-07T10:39:06;24.40;99.90
23089;DHT22;11713;48.506;8.966;2023-05-07T10:41:32;24.30;99.90
23089;DHT22;11713;48.506;8.966;2023-05-07T10:43:58;23.90;99.90
23089;DHT22;11713;48.506;8.966;2023-05-07T10:46:29;24.20;99.90
23089;DHT22;11713;48.506;8.966;2023-05-07T10:49:08;24.50;99.90
23089;DHT22;11713;48.506;8.966;2023-05-07T10:52:12;24.60;99.90
23089;DHT22;11713;48.506;8.966;2023-05-07T10:54:44;24.70;99.90
23089;DHT22;11713;48.506;8.966;2023-05-07T10:57:36;24.40;99.90
23089;DHT22;11713;48.506;8.966;2023-05-07T11:05:38;25.20;99.90
23089;DHT22;11713;48.506;8.966;2023-05-07T11:08:18;25.10;99.90
23089;DHT22;11713;48.506;8.966;2023-05-07T11:10:55;25.40;99.90
23089;DHT22;11713;48.506;8.966;2023-05-07T11:13:47;25.40;99.90
23089;DHT22;11713;48.506;8.966;2023-05-07T11:16:46;25.60;99.90
23089;DHT22;11713;48.506;8.966;2023-05-07T11:22:38;25.40;99.90
23089;DHT22;11713;48.506;8.966;2023-05-07T11:25:18;25.30;99.90
23089;DHT22;11713;48.506;8.966;2023-05-07T11:27:54;25.30;99.90
23089;DHT22;11713;48.506;8.966;2023-05-07T11:30:20;25.10;99.90
23089;DHT22;11713;48.506;8.966;2023-05-07T11:32:47;24.80;99.90
23089;DHT22;11713;48.506;8.966;2023-05-07T11:35:15;24.30;99.90
23089;DHT22;11713;48.506;8.966;2023-05-07T11:37:45;24.20;99.90
23089;DHT22;11713;48.506;8.966;2023-05-07T11:40:15;24.10;99.90
23089;DHT22;11713;48.506;8.966;2023-05-07T11:42:41;23.90;99.90
23089;DHT22;11713;48.506;8.966;2023-05-07T11:45:08;23.70;99.90
23089;DHT22;11713;48.506;8.966;2023-05-07T11:47:34;23.70;99.90
23089;DHT22;11713;48.506;8.966;2023-05-07T11:50:07;23.60;99.90
23089;DHT22;11713;48.506;8.966;2023-05-07T11:52:34;23.40;99.90
23089;DHT22;11713;48.506;8.966;2023-05-07T11:55:02;23.30;99.90
23089;DHT22;11713;48.506;8.966;2023-05-07T11:57:30;23.10;99.90
23089;DHT22;11713;48.506;8.966;2023-05-07T12:00:00;22.80;99.90
23089;DHT22;11713;48.506;8.966;2023-05-07T12:02:27;22.50;99.90
23089;DHT22;11713;48.506;8.966;2023-05-07T12:04:54;22.20;99.90
23089;DHT22;11713;48.506;8.966;2023-05-07T12:07:20;21.90;99.90
23089;DHT22;11713;48.506;8.966;2023-05-07T12:09:47;21.70;99.90
23089;DHT22;11713;48.506;8.966;2023-05-07T12:12:13;21.60;99.90
23089;DHT22;11713;48.506;8.966;2023-05-07T12:14:42;21.50;99.90
23089;DHT22;11713;48.506;8.966;2023-05-07T12:17:10;21.30;99.90
23089;DHT22;11713;48.506;8.966;2023-05-07T12:19:36;21.20;99.90
23089;DHT22;11713;48.506;8.966;2023-05-07T12:22:03;21.10;99.90
23089;DHT22;11713;48.506;8.966;2023-05-07T12:24:47;21.10;99.90
23089;DHT22;11713;48.506;8.966;2023-05-07T12:27:15;21.00;99.90
23089;DHT22;11713;48.506;8.966;2023-05-07T12:29:49;20.90;99.90
23089;DHT22;11713;48.506;8.966;2023-05-07T12:32:20;20.80;99.90
23089;DHT22;11713;48.506;8.966;2023-05-07T12:34:50;20.70;99.90
23089;DHT22;11713;48.506;8.966;2023-05-07T12:37:25;20.60;99.90
23089;DHT22;11713;48.506;8.966;2023-05-07T12:40:11;20.60;99.90
23089;DHT22;11713;48.506;8.966;2023-05-07T12:42:37;20.50;99.90
23089;DHT22;11713;48.506;8.966;2023-05-07T12:45:15;20.50;99.90
23089;DHT22;11713;48.506;8.966;2023-05-07T12:47:45;20.20;99.90
23089;DHT22;11713;48.506;8.966;2023-05-07T12:50:11;19.80;99.90
23089;DHT22;11713;48.506;8.966;2023-05-07T12:52:38;19.60;99.90
23089;DHT22;11713;48.506;8.966;2023-05-07T12:55:08;19.40;99.90
23089;DHT22;11713;48.506;8.966;2023-05-07T12:57:49;19.10;99.90
23089;DHT22;11713;48.506;8.966;2023-05-07T13:00:40;18.70;99.90
23089;DHT22;11713;48.506;8.966;2023-05-07T13:03:09;18.50;99.90
23089;DHT22;11713;48.506;8.966;2023-05-07T13:05:35;18.30;99.90
23089;DHT22;11713;48.506;8.966;2023-05-07T13:08:01;18.20;99.90
23089;DHT22;11713;48.506;8.966;2023-05-07T13:10:27;18.10;99.90
23089;DHT22;11713;48.506;8.966;2023-05-07T13:12:53;18.10;99.90
23089;DHT22;11713;48.506;8.966;2023-05-07T13:15:18;18.10;99.90
23089;DHT22;11713;48.506;8.966;2023-05-07T13:17:44;18.10;99.90
23089;DHT22;11713;48.506;8.966;2023-05-07T13:20:11;18.00;99.90
23089;DHT22;11713;48.506;8.966;2023-05-07T13:22:39;17.90;99.90
23089;DHT22;11713;48.506;8.966;2023-05-07T13:25:14;17.80;99.90
23089;DHT22;11713;48.506;8.966;2023-05-07T13:27:40;17.80;99.90
23089;DHT22;11713;48.506;8.966;2023-05-07T13:30:07;17.60;99.90
23089;DHT22;11713;48.506;8.966;2023-05-07T13:32:32;17.50;99.90
23089;DHT22;11713;48.506;8.966;2023-05-07T13:34:58;17.40;99.90
23089;DHT22;11713;48.506;8.966;2023-05-07T13:37:24;17.30;99.90
23089;DHT22;11713;48.506;8.966;2023-05-07T13:39:50;17.20;99.90
23089;DHT22;11713;48.506;8.966;2023-05-07T13:42:16;17.20;99.90
23089;DHT22;11713;48.506;8.966;2023-05-07T13:44:42;17.20;99.90
23089;DHT22;11713;48.506;8.966;2023-05-07T13:47:10;17.20;99.90
23089;DHT22;11713;48.506;8.966;2023-05-07T13:49:36;17.30;99.90
23089;DHT22;11713;48.506;8.966;2023-05-07T13:52:02;17.30;99.90
23089;DHT22;11713;48.506;8.966;2023-05-07T13:54:28;17.30;99.90
23089;DHT22;11713;48.506;8.966;2023-05-07T13:56:53;17.30;99.90
23089;DHT22;11713;48.506;8.966;2023-05-07T13:59:19;17.20;99.90
23089;DHT22;11713;48.506;8.966;2023-05-07T14:01:45;17.20;99.90
23089;DHT22;11713;48.506;8.966;2023-05-07T14:04:11;17.20;99.90
23089;DHT22;11713;48.506;8.966;2023-05-07T14:06:37;17.10;99.90
23089;DHT22;11713;48.506;8.966;2023-05-07T14:09:04;17.00;99.90
23089;DHT22;11713;48.506;8.966;2023-05-07T14:11:30;17.00;99.90
23089;DHT22;11713;48.506;8.966;2023-05-07T14:13:55;17.00;99.90
23089;DHT22;11713;48.506;8.966;2023-05-07T14:16:22;16.80;99.90
23089;DHT22;11713;48.506;8.966;2023-05-07T14:18:48;16.70;99.90
23089;DHT22;11713;48.506;8.966;2023-05-07T14:21:14;16.70;99.90
23089;DHT22;11713;48.506;8.966;2023-05-07T14:23:40;16.80;99.90
23089;DHT22;11713;48.506;8.966;2023-05-07T14:26:06;16.80;99.90
23089;DHT22;11713;48.506;8.966;2023-05-07T14:28:31;16.80;99.90
23089;DHT22;11713;48.506;8.966;2023-05-07T14:30:57;16.80;99.90
23089;DHT22;11713;48.506;8.966;2023-05-07T14:33:24;16.90;99.90
23089;DHT22;11713;48.506;8.966;2023-05-07T14:35:50;17.00;99.90
23089;DHT22;11713;48.506;8.966;2023-05-07T14:38:16;16.90;99.90
23089;DHT22;11713;48.506;8.966;2023-05-07T14:40:43;17.00;99.90
23089;DHT22;11713;48.506;8.966;2023-05-07T14:43:09;17.10;99.90
23089;DHT22;11713;48.506;8.966;2023-05-07T14:45:34;17.20;99.90
23089;DHT22;11713;48.506;8.966;2023-05-07T14:48:00;17.30;99.90
23089;DHT22;11713;48.506;8.966;2023-05-07T14:50:26;17.30;99.90
23089;DHT22;11713;48.506;8.966;2023-05-07T14:52:52;17.30;99.90
23089;DHT22;11713;48.506;8.966;2023-05-07T14:55:18;17.30;99.90
23089;DHT22;11713;48.506;8.966;2023-05-07T14:57:44;17.40;99.90
23089;DHT22;11713;48.506;8.966;2023-05-07T15:00:10;17.40;99.90
23089;DHT22;11713;48.506;8.966;2023-05-07T15:02:37;17.40;99.90
23089;DHT22;11713;48.506;8.966;2023-05-07T15:05:04;17.40;99.90
23089;DHT22;11713;48.506;8.966;2023-05-07T15:07:31;17.40;99.90
23089;DHT22;11713;48.506;8.966;2023-05-07T15:09:59;17.40;99.90
23089;DHT22;11713;48.506;8.966;2023-05-07T15:12:25;17.40;99.90
23089;DHT22;11713;48.506;8.966;2023-05-07T15:15:18;17.50;99.90
23089;DHT22;11713;48.506;8.966;2023-05-07T15:18:37;17.40;99.90
23089;DHT22;11713;48.506;8.966;2023-05-07T15:21:07;17.30;99.90
23089;DHT22;11713;48.506;8.966;2023-05-07T15:23:33;17.40;99.90
23089;DHT22;11713;48.506;8.966;2023-05-07T15:25:59;17.60;99.90
23089;DHT22;11713;48.506;8.966;2023-05-07T15:28:27;17.60;99.90
23089;DHT22;11713;48.506;8.966;2023-05-07T15:30:57;17.60;99.90
23089;DHT22;11713;48.506;8.966;2023-05-07T15:33:25;17.50;99.90
23089;DHT22;11713;48.506;8.966;2023-05-07T15:35:53;17.50;99.90
23089;DHT22;11713;48.506;8.966;2023-05-07T15:38:21;17.60;99.90
23089;DHT22;11713;48.506;8.966;2023-05-07T15:40:47;17.60;99.90
23089;DHT22;11713;48.506;8.966;2023-05-07T15:43:13;17.70;99.90
23089;DHT22;11713;48.506;8.966;2023-05-07T15:45:40;17.70;99.90
23089;DHT22;11713;48.506;8.966;2023-05-07T15:48:07;17.70;99.90
23089;DHT22;11713;48.506;8.966;2023-05-07T15:50:33;17.70;99.90
23089;DHT22;11713;48.506;8.966;2023-05-07T15:52:59;17.80;99.90